createdAt,value
2017-09-29T00:01:45.396Z,96.60
2017-09-29T00:04:12.968Z,96.50
2017-09-29T00:06:40.621Z,96.40
2017-09-29T00:09:08.220Z,96.10
2017-09-29T00:11:35.844Z,96.30
2017-09-29T00:14:04.764Z,96.30
2017-09-29T00:16:33.096Z,96.30
2017-09-29T00:19:01.865Z,96.60
2017-09-29T00:21:29.460Z,96.30
2017-09-29T00:23:57.072Z,96.20
2017-09-29T00:26:24.646Z,96.20
2017-09-29T00:28:52.252Z,96.10
2017-09-29T00:31:20.653Z,96.00
2017-09-29T00:33:49.009Z,95.90
2017-09-29T00:36:16.672Z,95.90
2017-09-29T00:38:45.038Z,95.90
2017-09-29T00:41:13.024Z,95.90
2017-09-29T00:43:40.616Z,95.80
2017-09-29T00:46:08.188Z,95.90
2017-09-29T00:48:35.784Z,96.10
2017-09-29T00:51:04.687Z,96.40
2017-09-29T00:53:32.292Z,96.40
2017-09-29T00:55:59.912Z,96.40
2017-09-29T00:58:27.505Z,96.30
2017-09-29T01:00:55.841Z,96.20
2017-09-29T01:03:23.624Z,96.20
2017-09-29T01:05:52.005Z,96.30
2017-09-29T01:08:19.600Z,96.10
2017-09-29T01:10:47.206Z,96.10
2017-09-29T01:13:14.905Z,96.10
2017-09-29T01:15:43.533Z,96.20
2017-09-29T01:18:11.328Z,96.20
2017-09-29T01:20:40.805Z,96.60
2017-09-29T01:23:09.288Z,96.40
2017-09-29T01:25:37.050Z,96.50
2017-09-29T01:28:04.669Z,96.60
2017-09-29T01:30:33.005Z,96.70
2017-09-29T01:33:01.928Z,96.80
2017-09-29T01:35:29.592Z,96.80
2017-09-29T01:37:57.960Z,97.10
2017-09-29T01:40:25.551Z,96.80
2017-09-29T01:42:53.884Z,96.70
2017-09-29T01:45:21.484Z,96.70
2017-09-29T01:47:49.824Z,96.90
2017-09-29T01:50:17.428Z,96.90
2017-09-29T01:52:45.765Z,97.00
2017-09-29T01:55:13.360Z,97.00
2017-09-29T01:57:41.696Z,97.20
2017-09-29T02:00:09.489Z,97.20
2017-09-29T02:02:38.565Z,97.30
2017-09-29T02:05:06.260Z,97.30
2017-09-29T02:07:34.625Z,97.30
2017-09-29T02:10:04.004Z,97.20
2017-09-29T02:12:31.610Z,97.20
2017-09-29T02:15:00.879Z,97.20
2017-09-29T02:17:28.473Z,97.20
2017-09-29T02:19:56.804Z,97.50
2017-09-29T02:22:24.436Z,97.50
2017-09-29T02:24:52.057Z,97.80
2017-09-29T02:27:19.629Z,97.50
2017-09-29T02:29:47.989Z,97.30
2017-09-29T02:32:15.569Z,97.30
2017-09-29T02:34:43.937Z,97.50
2017-09-29T02:37:11.512Z,97.40
2017-09-29T02:39:39.877Z,97.30
2017-09-29T02:42:07.449Z,97.20
2017-09-29T02:44:35.824Z,97.10
2017-09-29T02:47:04.793Z,97.10
2017-09-29T02:49:32.472Z,97.10
2017-09-29T02:52:00.041Z,97.00
2017-09-29T02:54:28.395Z,97.20
2017-09-29T02:56:58.452Z,97.00
2017-09-29T02:59:28.549Z,97.20
2017-09-29T03:01:58.284Z,97.20
2017-09-29T03:04:27.276Z,97.10
2017-09-29T03:06:55.640Z,97.10
2017-09-29T03:09:23.981Z,97.10
2017-09-29T03:11:51.660Z,97.10
2017-09-29T03:14:19.367Z,97.10
2017-09-29T03:16:46.981Z,97.30
2017-09-29T03:19:14.553Z,97.50
2017-09-29T03:21:43.638Z,97.70
2017-09-29T03:24:11.236Z,97.60
2017-09-29T03:26:39.569Z,97.50
2017-09-29T03:29:07.266Z,97.50
2017-09-29T03:31:35.609Z,97.40
2017-09-29T03:34:04.856Z,97.40
2017-09-29T03:36:33.193Z,97.30
2017-09-29T03:39:03.011Z,97.30
2017-09-29T03:41:30.603Z,97.30
2017-09-29T03:43:58.940Z,97.30
2017-09-29T03:46:26.536Z,97.20
2017-09-29T03:48:55.812Z,97.50
2017-09-29T03:51:24.159Z,97.20
2017-09-29T03:53:52.316Z,97.10
2017-09-29T03:56:20.516Z,97.00
2017-09-29T03:58:51.668Z,96.90
2017-09-29T04:01:19.264Z,96.90
2017-09-29T04:03:46.831Z,96.90
2017-09-29T04:06:14.423Z,96.90
2017-09-29T04:08:41.988Z,97.20
2017-09-29T04:11:09.708Z,97.10
2017-09-29T04:13:37.372Z,97.20
2017-09-29T04:16:04.952Z,97.20
2017-09-29T04:18:33.311Z,97.00
2017-09-29T04:21:02.095Z,97.00
2017-09-29T04:23:31.226Z,97.00
2017-09-29T04:25:59.561Z,97.30
2017-09-29T04:28:27.165Z,96.90
2017-09-29T04:30:55.498Z,96.80
2017-09-29T04:33:23.112Z,96.70
2017-09-29T04:35:50.684Z,96.90
2017-09-29T04:38:18.301Z,97.00
2017-09-29T04:40:45.965Z,97.10
2017-09-29T04:43:13.545Z,97.40
2017-09-29T04:45:42.004Z,97.70
2017-09-29T04:48:11.080Z,97.90
2017-09-29T04:50:38.865Z,97.90
2017-09-29T04:53:06.535Z,98.00
2017-09-29T04:55:34.100Z,98.00
2017-09-29T04:58:03.908Z,97.80
2017-09-29T05:00:31.573Z,97.80
2017-09-29T05:03:00.875Z,98.00
2017-09-29T05:05:28.445Z,98.00
2017-09-29T05:07:57.009Z,98.00
2017-09-29T05:10:24.577Z,98.00
2017-09-29T05:12:52.920Z,98.10
2017-09-29T05:15:20.516Z,97.80
2017-09-29T05:17:48.847Z,97.40
2017-09-29T05:20:16.558Z,97.70
2017-09-29T05:22:44.129Z,97.60
2017-09-29T05:25:12.809Z,97.40
2017-09-29T05:27:41.148Z,97.40
2017-09-29T05:30:08.739Z,97.30
2017-09-29T05:32:36.409Z,97.20
2017-09-29T05:35:04.761Z,96.90
2017-09-29T05:37:32.444Z,96.90
2017-09-29T05:40:00.017Z,96.80
2017-09-29T05:42:28.491Z,96.50
2017-09-29T05:44:57.567Z,96.40
2017-09-29T05:47:25.453Z,96.40
2017-09-29T05:49:53.028Z,96.20
2017-09-29T05:52:21.393Z,95.90
2017-09-29T05:54:48.993Z,95.90
2017-09-29T05:57:16.570Z,95.90
2017-09-29T05:59:44.924Z,96.00
2017-09-29T06:02:12.537Z,96.00
2017-09-29T06:04:40.132Z,96.00
2017-09-29T06:07:08.473Z,95.90
2017-09-29T06:09:36.067Z,95.90
2017-09-29T06:12:04.745Z,96.10
2017-09-29T06:14:32.604Z,96.10
2017-09-29T06:17:00.273Z,96.10
2017-09-29T06:19:28.652Z,96.20
2017-09-29T06:21:57.016Z,96.30
2017-09-29T06:24:24.588Z,96.20
2017-09-29T06:26:53.785Z,96.10
2017-09-29T06:29:21.359Z,96.10
2017-09-29T06:31:49.700Z,95.90
2017-09-29T06:34:17.300Z,95.90
2017-09-29T06:36:45.640Z,95.70
2017-09-29T06:39:13.337Z,95.60
2017-09-29T06:41:40.908Z,95.50
2017-09-29T06:44:09.276Z,95.20
2017-09-29T06:46:36.848Z,95.20
2017-09-29T06:49:05.311Z,93.90
2017-09-29T06:51:33.159Z,93.90
2017-09-29T06:54:02.769Z,88.60
2017-09-29T06:56:30.556Z,88.60
2017-09-29T06:58:58.128Z,85.20
2017-09-29T07:01:26.496Z,79.20
2017-09-29T07:03:54.108Z,79.20
2017-09-29T07:06:21.683Z,78.20
2017-09-29T07:08:49.280Z,77.60
2017-09-29T07:11:16.888Z,79.90
2017-09-29T07:13:44.456Z,80.00
2017-09-29T07:16:12.060Z,80.30
2017-09-29T07:18:39.724Z,82.50
2017-09-29T07:21:07.390Z,83.70
2017-09-29T07:23:35.056Z,83.70
2017-09-29T07:26:07.202Z,81.40
2017-09-29T07:28:36.237Z,81.30
2017-09-29T07:31:08.657Z,81.80
2017-09-29T07:33:36.240Z,81.80
2017-09-29T07:36:04.628Z,84.00
2017-09-29T07:38:32.289Z,83.90
2017-09-29T07:40:59.956Z,84.10
2017-09-29T07:43:27.532Z,83.10
2017-09-29T07:45:55.968Z,84.00
2017-09-29T07:48:23.533Z,84.00
2017-09-29T07:50:51.320Z,84.40
2017-09-29T07:53:19.656Z,83.30
2017-09-29T07:55:47.220Z,83.30
2017-09-29T07:58:14.815Z,82.00
2017-09-29T08:00:42.388Z,81.00
2017-09-29T08:03:10.756Z,75.90
2017-09-29T08:05:38.332Z,75.90
2017-09-29T08:08:06.983Z,68.70
2017-09-29T08:10:34.571Z,68.70
2017-09-29T08:13:04.687Z,59.90
2017-09-29T08:15:33.025Z,57.50
2017-09-29T08:18:01.843Z,56.10
2017-09-29T08:20:30.915Z,56.20
2017-09-29T08:22:58.512Z,56.20
2017-09-29T08:25:26.856Z,55.50
2017-09-29T08:27:54.651Z,55.40
2017-09-29T08:30:22.229Z,52.70
2017-09-29T08:32:50.596Z,44.10
2017-09-29T08:35:18.196Z,44.10
2017-09-29T08:37:45.769Z,42.20
2017-09-29T08:40:13.368Z,39.10
2017-09-29T08:42:40.938Z,37.60
2017-09-29T08:45:08.545Z,38.00
2017-09-29T08:47:36.117Z,38.10
2017-09-29T08:50:04.128Z,38.30
2017-09-29T08:52:31.702Z,39.80
2017-09-29T08:55:01.842Z,38.30
2017-09-29T08:57:29.420Z,38.40
2017-09-29T08:59:57.031Z,39.60
2017-09-29T09:02:24.637Z,42.60
2017-09-29T09:04:52.216Z,46.40
2017-09-29T09:07:19.812Z,48.70
2017-09-29T09:09:47.384Z,51.00
2017-09-29T09:12:15.752Z,53.90
2017-09-29T09:14:43.337Z,53.70
2017-09-29T09:17:11.700Z,60.50
2017-09-29T09:19:39.272Z,60.50
2017-09-29T09:22:07.736Z,57.50
2017-09-29T09:24:35.376Z,57.50
2017-09-29T09:27:05.008Z,53.90
2017-09-29T09:29:32.596Z,53.90
2017-09-29T09:32:01.973Z,50.70
2017-09-29T09:34:29.552Z,50.60
2017-09-29T09:36:57.907Z,52.20
2017-09-29T09:39:25.496Z,52.10
2017-09-29T09:41:53.827Z,51.20
2017-09-29T09:44:21.425Z,51.20
2017-09-29T09:46:49.788Z,48.30
2017-09-29T09:49:18.148Z,44.80
2017-09-29T09:51:45.733Z,44.80
2017-09-29T09:54:14.101Z,36.10
2017-09-29T09:56:42.445Z,33.60
2017-09-29T09:59:10.041Z,33.40
2017-09-29T10:01:37.620Z,31.50
2017-09-29T10:04:06.012Z,31.80
2017-09-29T10:06:34.354Z,32.30
2017-09-29T10:09:03.752Z,32.50
2017-09-29T10:11:31.349Z,32.50
2017-09-29T10:13:59.684Z,35.30
2017-09-29T10:16:27.301Z,35.30
2017-09-29T10:18:55.648Z,36.60
2017-09-29T10:21:23.320Z,36.60
2017-09-29T10:23:51.692Z,35.90
2017-09-29T10:26:19.269Z,35.90
2017-09-29T10:28:47.640Z,34.70
2017-09-29T10:31:15.300Z,34.50
2017-09-29T10:33:42.960Z,33.90
2017-09-29T10:36:10.533Z,32.90
2017-09-29T10:38:39.104Z,33.80
2017-09-29T10:41:06.671Z,33.80
2017-09-29T10:43:34.249Z,34.60
2017-09-29T10:46:03.945Z,34.60
2017-09-29T10:48:32.313Z,33.50
2017-09-29T10:50:59.984Z,33.50
2017-09-29T10:53:27.572Z,33.50
2017-09-29T10:55:55.211Z,34.90
2017-09-29T10:58:23.548Z,39.10
2017-09-29T11:00:51.244Z,39.00
2017-09-29T11:03:20.340Z,36.00
2017-09-29T11:05:47.936Z,36.00
2017-09-29T11:08:15.520Z,34.40
2017-09-29T11:10:43.115Z,32.50
2017-09-29T11:13:10.699Z,32.10
2017-09-29T11:15:39.055Z,31.30
2017-09-29T11:18:06.728Z,31.30
2017-09-29T11:20:34.315Z,31.20
2017-09-29T11:23:02.748Z,29.90
2017-09-29T11:25:30.432Z,29.90
2017-09-29T11:27:58.004Z,29.90
2017-09-29T11:30:26.396Z,29.20
2017-09-29T11:32:54.031Z,29.10
2017-09-29T11:35:21.692Z,29.10
2017-09-29T11:37:50.608Z,28.50
2017-09-29T11:40:18.970Z,29.00
2017-09-29T11:42:46.568Z,29.00
2017-09-29T11:45:15.013Z,28.60
2017-09-29T11:47:42.608Z,28.50
2017-09-29T11:50:10.231Z,28.70
2017-09-29T11:52:37.888Z,28.50
2017-09-29T11:55:05.460Z,29.50
2017-09-29T11:57:33.032Z,31.30
2017-09-29T12:00:02.929Z,32.10
2017-09-29T12:02:30.500Z,32.10
2017-09-29T12:04:59.085Z,31.90
2017-09-29T12:07:27.424Z,33.40
2017-09-29T12:09:54.997Z,33.30
2017-09-29T12:12:22.601Z,32.80
2017-09-29T12:14:50.952Z,33.70
2017-09-29T12:17:18.617Z,33.80
2017-09-29T12:19:46.197Z,32.30
2017-09-29T12:22:14.576Z,29.20
2017-09-29T12:24:42.914Z,28.10
2017-09-29T12:27:10.547Z,28.10
2017-09-29T12:29:38.115Z,28.20
2017-09-29T12:32:05.720Z,27.10
2017-09-29T12:34:33.360Z,27.00
2017-09-29T12:37:02.869Z,28.40
2017-09-29T12:39:30.459Z,28.30
2017-09-29T12:41:58.792Z,29.40
2017-09-29T12:44:26.392Z,29.40
2017-09-29T12:46:53.964Z,28.10
2017-09-29T12:49:22.328Z,28.70
2017-09-29T12:51:49.910Z,28.70
2017-09-29T12:54:18.280Z,26.70
2017-09-29T12:56:46.619Z,26.20
2017-09-29T12:59:14.207Z,26.10
2017-09-29T13:01:41.868Z,26.60
2017-09-29T13:04:09.440Z,26.60
2017-09-29T13:06:37.804Z,26.40
2017-09-29T13:09:06.141Z,26.20
2017-09-29T13:11:33.735Z,26.30
2017-09-29T13:14:02.228Z,27.00
2017-09-29T13:16:30.592Z,27.00
2017-09-29T13:18:58.276Z,27.00
2017-09-29T13:21:25.882Z,29.30
2017-09-29T13:23:53.781Z,32.00
2017-09-29T13:26:21.525Z,35.10
2017-09-29T13:28:49.094Z,33.80
2017-09-29T13:31:16.691Z,34.30
2017-09-29T13:33:45.071Z,34.90
2017-09-29T13:36:12.851Z,34.00
2017-09-29T13:38:41.195Z,33.20
2017-09-29T13:41:08.770Z,33.10
2017-09-29T13:43:36.364Z,35.70
2017-09-29T13:46:03.940Z,37.20
2017-09-29T13:48:31.536Z,37.00
2017-09-29T13:50:59.101Z,38.50
2017-09-29T13:53:26.780Z,39.70
2017-09-29T13:55:54.439Z,39.40
2017-09-29T13:58:22.093Z,41.30
2017-09-29T14:00:49.660Z,41.70
2017-09-29T14:03:18.020Z,45.20
2017-09-29T14:05:45.600Z,45.20
2017-09-29T14:08:15.009Z,50.20
2017-09-29T14:10:42.663Z,50.20
2017-09-29T14:13:10.227Z,52.10
2017-09-29T14:15:39.328Z,55.60
2017-09-29T14:18:06.992Z,55.60
2017-09-29T14:20:34.653Z,57.70
2017-09-29T14:23:03.828Z,59.10
2017-09-29T14:25:31.507Z,59.00
2017-09-29T14:27:59.080Z,59.40
2017-09-29T14:30:27.755Z,61.60
2017-09-29T14:32:56.833Z,61.10
2017-09-29T14:35:24.416Z,61.10
2017-09-29T14:37:52.076Z,61.30
2017-09-29T14:40:19.665Z,62.00
2017-09-29T14:42:48.427Z,63.70
2017-09-29T14:45:16.013Z,63.70
2017-09-29T14:47:44.351Z,64.90
2017-09-29T14:50:12.032Z,64.90
2017-09-29T14:52:40.407Z,66.80
2017-09-29T14:55:08.000Z,66.80
2017-09-29T14:57:35.564Z,66.50
2017-09-29T15:00:04.736Z,67.00
2017-09-29T15:02:32.307Z,67.00
2017-09-29T15:05:01.594Z,66.60
2017-09-29T15:07:29.164Z,66.60
2017-09-29T15:09:57.540Z,68.60
2017-09-29T15:12:25.916Z,69.00
2017-09-29T15:14:53.571Z,69.00
2017-09-29T15:17:21.236Z,69.50
2017-09-29T15:19:48.808Z,69.50
2017-09-29T15:22:17.172Z,69.90
2017-09-29T15:24:44.744Z,69.10
2017-09-29T15:27:13.213Z,68.80
2017-09-29T15:29:40.875Z,68.70
2017-09-29T15:32:08.544Z,69.50
2017-09-29T15:34:36.314Z,70.50
2017-09-29T15:37:04.661Z,70.20
2017-09-29T15:39:32.245Z,70.10
2017-09-29T15:42:01.536Z,71.60
2017-09-29T15:44:29.128Z,70.70
2017-09-29T15:46:57.464Z,72.00
2017-09-29T15:49:25.061Z,72.00
2017-09-29T15:51:53.395Z,72.50
2017-09-29T15:54:20.989Z,72.50
2017-09-29T15:56:48.564Z,72.80
2017-09-29T15:59:16.937Z,73.80
2017-09-29T16:01:45.305Z,74.00
2017-09-29T16:04:13.073Z,73.90
2017-09-29T16:06:41.420Z,75.50
2017-09-29T16:09:08.991Z,75.00
2017-09-29T16:11:36.579Z,75.30
2017-09-29T16:14:04.920Z,76.90
2017-09-29T16:16:32.532Z,76.90
2017-09-29T16:19:01.812Z,78.40
2017-09-29T16:21:29.409Z,78.30
2017-09-29T16:23:57.963Z,80.70
2017-09-29T16:26:26.330Z,79.80
2017-09-29T16:28:53.896Z,79.60
2017-09-29T16:31:21.467Z,82.50
2017-09-29T16:33:49.824Z,83.90
2017-09-29T16:36:17.404Z,83.80
2017-09-29T16:38:45.776Z,85.80
2017-09-29T16:41:13.445Z,85.80
2017-09-29T16:43:41.785Z,88.60
2017-09-29T16:46:09.480Z,88.40
2017-09-29T16:48:37.140Z,89.00
2017-09-29T16:51:04.731Z,89.60
2017-09-29T16:53:32.302Z,90.60
2017-09-29T16:55:59.892Z,90.10
2017-09-29T16:58:27.470Z,90.60
2017-09-29T17:00:55.085Z,90.90
2017-09-29T17:03:22.661Z,90.90
2017-09-29T17:05:50.235Z,91.10
2017-09-29T17:08:17.840Z,91.50
2017-09-29T17:10:46.208Z,91.50
2017-09-29T17:13:13.811Z,91.50
2017-09-29T17:15:41.385Z,91.40
2017-09-29T17:18:09.151Z,91.90
2017-09-29T17:20:36.723Z,91.30
2017-09-29T17:23:08.947Z,90.70
2017-09-29T17:25:37.304Z,92.00
2017-09-29T17:28:04.972Z,91.90
2017-09-29T17:30:32.541Z,91.70
2017-09-29T17:33:01.820Z,92.30
2017-09-29T17:35:29.421Z,92.30
2017-09-29T17:37:56.990Z,92.50
2017-09-29T17:40:24.587Z,92.50
2017-09-29T17:42:52.161Z,92.10
2017-09-29T17:45:19.836Z,91.70
2017-09-29T17:47:47.403Z,92.50
2017-09-29T17:50:15.760Z,93.20
2017-09-29T17:52:43.332Z,93.20
2017-09-29T17:55:10.998Z,92.90
2017-09-29T17:57:38.571Z,92.90
2017-09-29T18:00:06.926Z,92.50
2017-09-29T18:02:34.600Z,92.50
2017-09-29T18:05:05.020Z,92.60
2017-09-29T18:07:32.600Z,92.50
2017-09-29T18:10:01.885Z,92.60
2017-09-29T18:12:30.368Z,92.50
2017-09-29T18:14:57.940Z,92.60
2017-09-29T18:17:26.304Z,92.60
2017-09-29T18:19:53.867Z,92.60
2017-09-29T18:22:21.492Z,92.70
2017-09-29T18:24:49.091Z,93.00
2017-09-29T18:27:18.392Z,93.30
2017-09-29T18:29:45.959Z,93.30
2017-09-29T18:32:13.552Z,93.70
2017-09-29T18:34:41.157Z,94.20
2017-09-29T18:37:08.840Z,94.20
2017-09-29T18:39:36.436Z,94.20
2017-09-29T18:42:05.320Z,94.40
2017-09-29T18:44:33.509Z,94.40
2017-09-29T18:47:05.676Z,94.20
2017-09-29T18:49:33.277Z,94.20
2017-09-29T18:52:03.391Z,94.50
2017-09-29T18:54:31.072Z,94.50
2017-09-29T18:56:59.404Z,94.50
2017-09-29T18:59:27.001Z,94.50
2017-09-29T19:01:54.569Z,94.30
2017-09-29T19:04:23.668Z,94.20
2017-09-29T19:06:51.237Z,94.20
2017-09-29T19:09:18.896Z,94.20
2017-09-29T19:11:46.487Z,94.50
2017-09-29T19:14:14.060Z,94.20
2017-09-29T19:16:41.656Z,94.20
2017-09-29T19:19:09.228Z,94.20
2017-09-29T19:21:36.861Z,94.30
2017-09-29T19:24:04.436Z,94.40
2017-09-29T19:26:32.040Z,94.60
2017-09-29T19:29:01.305Z,94.80
2017-09-29T19:31:28.900Z,94.80
2017-09-29T19:33:57.916Z,94.40
2017-09-29T19:36:30.067Z,94.30
2017-09-29T19:38:58.604Z,94.60
2017-09-29T19:41:28.668Z,94.60
2017-09-29T19:43:56.624Z,94.80
2017-09-29T19:46:24.902Z,94.80
2017-09-29T19:48:52.556Z,94.80
2017-09-29T19:51:20.299Z,94.90
2017-09-29T19:53:48.064Z,94.90
2017-09-29T19:56:15.749Z,95.10
2017-09-29T19:58:43.413Z,95.00
2017-09-29T20:01:10.993Z,95.20
2017-09-29T20:03:42.899Z,95.50
2017-09-29T20:06:12.229Z,95.40
2017-09-29T20:08:40.108Z,95.70
2017-09-29T20:11:08.464Z,95.90
2017-09-29T20:13:36.132Z,95.90
2017-09-29T20:16:08.376Z,96.20
2017-09-29T20:18:36.095Z,96.20
2017-09-29T20:21:04.584Z,96.40
2017-09-29T20:23:38.238Z,96.60
2017-09-29T20:26:11.104Z,96.50
2017-09-29T20:28:38.896Z,96.60
2017-09-29T20:31:06.549Z,96.40
2017-09-29T20:33:34.139Z,96.40
2017-09-29T20:36:02.826Z,96.50
2017-09-29T20:38:31.797Z,96.30
2017-09-29T20:41:01.916Z,96.30
2017-09-29T20:43:29.555Z,96.30
2017-09-29T20:45:57.153Z,96.30
2017-09-29T20:48:24.824Z,96.40
2017-09-29T20:50:52.415Z,96.40
2017-09-29T20:53:20.753Z,96.20
2017-09-29T20:55:48.433Z,96.20
2017-09-29T20:58:16.809Z,96.70
2017-09-29T21:00:44.405Z,96.40
2017-09-29T21:03:11.976Z,96.30
2017-09-29T21:05:39.569Z,96.20
2017-09-29T21:08:07.149Z,96.30
2017-09-29T21:10:35.532Z,96.70
2017-09-29T21:13:05.212Z,97.20
2017-09-29T21:15:32.776Z,96.80
2017-09-29T21:18:02.924Z,96.60
2017-09-29T21:20:30.586Z,96.60
2017-09-29T21:22:58.252Z,96.80
2017-09-29T21:25:25.820Z,96.70
2017-09-29T21:27:54.181Z,97.00
2017-09-29T21:30:21.772Z,96.90
2017-09-29T21:32:50.129Z,97.00
2017-09-29T21:35:17.709Z,97.00
2017-09-29T21:37:46.062Z,97.20
2017-09-29T21:40:13.636Z,97.20
2017-09-29T21:42:42.390Z,97.30
2017-09-29T21:45:10.124Z,97.30
2017-09-29T21:47:37.693Z,97.20
2017-09-29T21:50:05.289Z,97.40
2017-09-29T21:52:32.860Z,97.20
2017-09-29T21:55:02.140Z,97.10
2017-09-29T21:57:29.796Z,97.10
2017-09-29T21:59:57.481Z,97.00
2017-09-29T22:02:25.436Z,97.10
2017-09-29T22:04:53.152Z,97.10
2017-09-29T22:07:20.725Z,96.80
2017-09-29T22:09:48.345Z,96.80
2017-09-29T22:12:15.919Z,97.10
2017-09-29T22:14:44.297Z,97.00
2017-09-29T22:17:12.636Z,96.90
2017-09-29T22:19:40.203Z,96.90
2017-09-29T22:22:07.875Z,96.70
2017-09-29T22:24:35.444Z,97.00
2017-09-29T22:27:04.948Z,96.90
2017-09-29T22:29:32.604Z,96.90
2017-09-29T22:32:01.119Z,97.00
2017-09-29T22:34:29.456Z,97.20
2017-09-29T22:36:57.137Z,97.20
2017-09-29T22:39:24.708Z,97.50
2017-09-29T22:41:53.238Z,97.40
2017-09-29T22:44:20.812Z,97.40
2017-09-29T22:46:48.385Z,97.50
2017-09-29T22:49:20.716Z,97.40
2017-09-29T22:51:49.296Z,97.00
2017-09-29T22:54:16.896Z,96.90
2017-09-29T22:56:44.464Z,96.70
2017-09-29T22:59:12.140Z,96.70
2017-09-29T23:01:39.812Z,96.70
2017-09-29T23:04:07.384Z,97.10
2017-09-29T23:06:35.744Z,97.40
2017-09-29T23:09:04.744Z,97.30
2017-09-29T23:11:32.400Z,97.30
2017-09-29T23:13:59.964Z,97.20
2017-09-29T23:16:27.588Z,97.00
2017-09-29T23:18:55.352Z,97.00
2017-09-29T23:21:22.923Z,97.10
2017-09-29T23:23:50.800Z,97.60
2017-09-29T23:26:18.484Z,97.60
2017-09-29T23:28:46.072Z,97.60
2017-09-29T23:31:13.644Z,97.60
2017-09-29T23:33:41.236Z,97.30
2017-09-29T23:36:08.814Z,97.20
2017-09-29T23:38:36.400Z,97.40
2017-09-29T23:41:04.736Z,97.50
2017-09-29T23:43:32.328Z,97.40
2017-09-29T23:46:00.820Z,97.50
2017-09-29T23:48:29.383Z,97.70
2017-09-29T23:50:56.952Z,97.70
2017-09-29T23:53:24.520Z,98.00
2017-09-29T23:55:52.880Z,98.10
2017-09-29T23:58:20.449Z,98.00
